sensor_id;sensor_type;location;lat;lon;timestamp;P1;durP1;ratioP1;P2;durP2;ratioP2
7841;SDS011;3966;51.052;13.820;2022-08-07T00:01:06;2.88;;;0.50;;
7841;SDS011;3966;51.052;13.820;2022-08-07T00:03:32;0.35;;;0.30;;
7841;SDS011;3966;51.052;13.820;2022-08-07T00:05:58;0.38;;;0.38;;
7841;SDS011;3966;51.052;13.820;2022-08-07T00:08:23;0.57;;;0.45;;
7841;SDS011;3966;51.052;13.820;2022-08-07T00:10:49;0.85;;;0.30;;
7841;SDS011;3966;51.052;13.820;2022-08-07T00:13:16;0.60;;;0.50;;
7841;SDS011;3966;51.052;13.820;2022-08-07T00:15:42;1.63;;;0.60;;
7841;SDS011;3966;51.052;13.820;2022-08-07T00:18:08;0.50;;;0.50;;
7841;SDS011;3966;51.052;13.820;2022-08-07T00:20:35;0.60;;;0.60;;
7841;SDS011;3966;51.052;13.820;2022-08-07T00:23:01;2.90;;;0.55;;
7841;SDS011;3966;51.052;13.820;2022-08-07T00:25:26;0.90;;;0.50;;
7841;SDS011;3966;51.052;13.820;2022-08-07T00:27:52;0.60;;;0.52;;
7841;SDS011;3966;51.052;13.820;2022-08-07T00:30:17;2.78;;;0.47;;
7841;SDS011;3966;51.052;13.820;2022-08-07T00:32:46;0.40;;;0.40;;
7841;SDS011;3966;51.052;13.820;2022-08-07T00:35:12;1.30;;;0.60;;
7841;SDS011;3966;51.052;13.820;2022-08-07T00:37:37;0.70;;;0.52;;
7841;SDS011;3966;51.052;13.820;2022-08-07T00:40:03;0.40;;;0.40;;
7841;SDS011;3966;51.052;13.820;2022-08-07T00:42:29;0.85;;;0.50;;
7841;SDS011;3966;51.052;13.820;2022-08-07T00:44:56;0.77;;;0.50;;
7841;SDS011;3966;51.052;13.820;2022-08-07T00:47:22;0.52;;;0.47;;
7841;SDS011;3966;51.052;13.820;2022-08-07T00:49:48;1.23;;;0.57;;
7841;SDS011;3966;51.052;13.820;2022-08-07T00:52:13;0.93;;;0.45;;
7841;SDS011;3966;51.052;13.820;2022-08-07T00:54:39;2.40;;;0.50;;
7841;SDS011;3966;51.052;13.820;2022-08-07T00:57:05;0.43;;;0.40;;
7841;SDS011;3966;51.052;13.820;2022-08-07T00:59:31;2.08;;;0.50;;
7841;SDS011;3966;51.052;13.820;2022-08-07T01:01:57;0.73;;;0.60;;
7841;SDS011;3966;51.052;13.820;2022-08-07T01:04:22;1.58;;;0.50;;
7841;SDS011;3966;51.052;13.820;2022-08-07T01:06:48;1.20;;;0.40;;
7841;SDS011;3966;51.052;13.820;2022-08-07T01:09:14;1.05;;;0.57;;
7841;SDS011;3966;51.052;13.820;2022-08-07T01:11:40;0.50;;;0.50;;
7841;SDS011;3966;51.052;13.820;2022-08-07T01:14:06;1.02;;;0.60;;
7841;SDS011;3966;51.052;13.820;2022-08-07T01:16:32;1.27;;;0.55;;
7841;SDS011;3966;51.052;13.820;2022-08-07T01:18:59;0.47;;;0.40;;
7841;SDS011;3966;51.052;13.820;2022-08-07T01:21:24;1.92;;;0.35;;
7841;SDS011;3966;51.052;13.820;2022-08-07T01:23:51;1.05;;;0.52;;
7841;SDS011;3966;51.052;13.820;2022-08-07T01:26:18;0.80;;;0.80;;
7841;SDS011;3966;51.052;13.820;2022-08-07T01:28:47;1.25;;;0.50;;
7841;SDS011;3966;51.052;13.820;2022-08-07T01:31:14;0.50;;;0.38;;
7841;SDS011;3966;51.052;13.820;2022-08-07T01:33:41;0.80;;;0.40;;
7841;SDS011;3966;51.052;13.820;2022-08-07T01:36:07;3.42;;;0.50;;
7841;SDS011;3966;51.052;13.820;2022-08-07T01:38:36;1.98;;;0.60;;
7841;SDS011;3966;51.052;13.820;2022-08-07T01:41:03;0.35;;;0.35;;
7841;SDS011;3966;51.052;13.820;2022-08-07T01:43:30;0.75;;;0.60;;
7841;SDS011;3966;51.052;13.820;2022-08-07T01:45:56;0.50;;;0.50;;
7841;SDS011;3966;51.052;13.820;2022-08-07T01:48:22;3.50;;;0.57;;
7841;SDS011;3966;51.052;13.820;2022-08-07T01:50:49;1.60;;;0.47;;
7841;SDS011;3966;51.052;13.820;2022-08-07T01:53:21;3.40;;;0.55;;
7841;SDS011;3966;51.052;13.820;2022-08-07T01:55:49;0.70;;;0.63;;
7841;SDS011;3966;51.052;13.820;2022-08-07T01:58:20;0.60;;;0.60;;
7841;SDS011;3966;51.052;13.820;2022-08-07T02:00:49;5.03;;;0.60;;
7841;SDS011;3966;51.052;13.820;2022-08-07T02:03:19;1.05;;;0.52;;
7841;SDS011;3966;51.052;13.820;2022-08-07T02:05:49;0.95;;;0.73;;
7841;SDS011;3966;51.052;13.820;2022-08-07T02:08:21;1.15;;;0.60;;
7841;SDS011;3966;51.052;13.820;2022-08-07T02:10:48;0.95;;;0.50;;
7841;SDS011;3966;51.052;13.820;2022-08-07T02:13:20;0.68;;;0.60;;
7841;SDS011;3966;51.052;13.820;2022-08-07T02:15:47;1.42;;;0.70;;
7841;SDS011;3966;51.052;13.820;2022-08-07T02:18:14;0.50;;;0.50;;
7841;SDS011;3966;51.052;13.820;2022-08-07T02:20:42;0.40;;;0.40;;
7841;SDS011;3966;51.052;13.820;2022-08-07T02:23:09;3.97;;;0.60;;
7841;SDS011;3966;51.052;13.820;2022-08-07T02:25:38;2.38;;;0.50;;
7841;SDS011;3966;51.052;13.820;2022-08-07T02:28:06;0.73;;;0.52;;
7841;SDS011;3966;51.052;13.820;2022-08-07T02:30:32;0.70;;;0.40;;
7841;SDS011;3966;51.052;13.820;2022-08-07T02:33:00;1.38;;;0.60;;
7841;SDS011;3966;51.052;13.820;2022-08-07T02:35:27;0.65;;;0.57;;
7841;SDS011;3966;51.052;13.820;2022-08-07T02:37:55;1.25;;;0.80;;
7841;SDS011;3966;51.052;13.820;2022-08-07T02:40:22;1.63;;;1.38;;
7841;SDS011;3966;51.052;13.820;2022-08-07T02:42:47;0.60;;;0.60;;
7841;SDS011;3966;51.052;13.820;2022-08-07T02:45:15;1.95;;;0.70;;
7841;SDS011;3966;51.052;13.820;2022-08-07T02:47:43;1.90;;;0.70;;
7841;SDS011;3966;51.052;13.820;2022-08-07T02:50:08;1.23;;;0.70;;
7841;SDS011;3966;51.052;13.820;2022-08-07T02:52:37;0.80;;;0.70;;
7841;SDS011;3966;51.052;13.820;2022-08-07T02:55:14;1.13;;;0.70;;
7841;SDS011;3966;51.052;13.820;2022-08-07T02:57:43;0.80;;;0.80;;
7841;SDS011;3966;51.052;13.820;2022-08-07T03:00:10;3.60;;;0.70;;
7841;SDS011;3966;51.052;13.820;2022-08-07T03:02:36;0.70;;;0.52;;
7841;SDS011;3966;51.052;13.820;2022-08-07T03:05:05;0.80;;;0.70;;
7841;SDS011;3966;51.052;13.820;2022-08-07T03:07:32;2.35;;;0.60;;
7841;SDS011;3966;51.052;13.820;2022-08-07T03:09:58;1.35;;;0.70;;
7841;SDS011;3966;51.052;13.820;2022-08-07T03:12:24;0.98;;;0.70;;
7841;SDS011;3966;51.052;13.820;2022-08-07T03:14:51;1.55;;;1.02;;
7841;SDS011;3966;51.052;13.820;2022-08-07T03:17:20;3.75;;;1.20;;
7841;SDS011;3966;51.052;13.820;2022-08-07T03:19:46;4.45;;;0.98;;
7841;SDS011;3966;51.052;13.820;2022-08-07T03:22:12;0.95;;;0.85;;
7841;SDS011;3966;51.052;13.820;2022-08-07T03:24:37;1.00;;;0.90;;
7841;SDS011;3966;51.052;13.820;2022-08-07T03:27:03;1.27;;;0.80;;
7841;SDS011;3966;51.052;13.820;2022-08-07T03:29:32;3.20;;;0.75;;
7841;SDS011;3966;51.052;13.820;2022-08-07T03:32:02;1.35;;;0.63;;
7841;SDS011;3966;51.052;13.820;2022-08-07T03:34:30;0.98;;;0.80;;
7841;SDS011;3966;51.052;13.820;2022-08-07T03:36:57;1.30;;;0.80;;
7841;SDS011;3966;51.052;13.820;2022-08-07T03:39:26;0.82;;;0.82;;
7841;SDS011;3966;51.052;13.820;2022-08-07T03:41:53;1.08;;;0.60;;
7841;SDS011;3966;51.052;13.820;2022-08-07T03:44:19;2.05;;;0.75;;
7841;SDS011;3966;51.052;13.820;2022-08-07T03:46:45;0.60;;;0.60;;
7841;SDS011;3966;51.052;13.820;2022-08-07T03:49:11;2.25;;;0.80;;
7841;SDS011;3966;51.052;13.820;2022-08-07T03:51:37;0.80;;;0.80;;
7841;SDS011;3966;51.052;13.820;2022-08-07T03:54:03;1.58;;;1.10;;
7841;SDS011;3966;51.052;13.820;2022-08-07T03:56:29;1.88;;;1.35;;
7841;SDS011;3966;51.052;13.820;2022-08-07T03:58:57;3.88;;;1.10;;
7841;SDS011;3966;51.052;13.820;2022-08-07T04:01:23;1.88;;;1.20;;
7841;SDS011;3966;51.052;13.820;2022-08-07T04:03:52;2.70;;;1.73;;
7841;SDS011;3966;51.052;13.820;2022-08-07T04:06:18;2.72;;;1.70;;
7841;SDS011;3966;51.052;13.820;2022-08-07T04:08:44;4.55;;;2.05;;
7841;SDS011;3966;51.052;13.820;2022-08-07T04:11:10;3.05;;;1.90;;
7841;SDS011;3966;51.052;13.820;2022-08-07T04:13:36;2.97;;;2.20;;
7841;SDS011;3966;51.052;13.820;2022-08-07T04:16:03;3.08;;;2.10;;
7841;SDS011;3966;51.052;13.820;2022-08-07T04:18:29;2.08;;;1.95;;
7841;SDS011;3966;51.052;13.820;2022-08-07T04:20:55;7.72;;;2.20;;
7841;SDS011;3966;51.052;13.820;2022-08-07T04:23:21;2.58;;;2.00;;
7841;SDS011;3966;51.052;13.820;2022-08-07T04:25:48;4.95;;;2.25;;
7841;SDS011;3966;51.052;13.820;2022-08-07T04:28:15;2.33;;;1.90;;
7841;SDS011;3966;51.052;13.820;2022-08-07T04:30:40;2.08;;;1.80;;
7841;SDS011;3966;51.052;13.820;2022-08-07T04:33:07;1.55;;;1.35;;
7841;SDS011;3966;51.052;13.820;2022-08-07T04:35:34;1.25;;;1.15;;
7841;SDS011;3966;51.052;13.820;2022-08-07T04:38:03;1.55;;;1.17;;
7841;SDS011;3966;51.052;13.820;2022-08-07T04:40:30;4.68;;;1.20;;
7841;SDS011;3966;51.052;13.820;2022-08-07T04:42:55;1.92;;;1.10;;
7841;SDS011;3966;51.052;13.820;2022-08-07T04:45:21;3.85;;;0.80;;
7841;SDS011;3966;51.052;13.820;2022-08-07T04:53:07;1.20;;;1.10;;
7841;SDS011;3966;51.052;13.820;2022-08-07T04:58:17;1.40;;;1.08;;
7841;SDS011;3966;51.052;13.820;2022-08-07T05:00:49;1.05;;;0.82;;
7841;SDS011;3966;51.052;13.820;2022-08-07T05:03:45;2.15;;;0.95;;
7841;SDS011;3966;51.052;13.820;2022-08-07T05:09:19;0.77;;;0.77;;
7841;SDS011;3966;51.052;13.820;2022-08-07T05:11:50;1.10;;;1.00;;
7841;SDS011;3966;51.052;13.820;2022-08-07T05:14:29;0.98;;;0.70;;
7841;SDS011;3966;51.052;13.820;2022-08-07T05:17:01;0.63;;;0.63;;
7841;SDS011;3966;51.052;13.820;2022-08-07T05:19:30;0.90;;;0.90;;
7841;SDS011;3966;51.052;13.820;2022-08-07T05:22:01;1.95;;;0.90;;
7841;SDS011;3966;51.052;13.820;2022-08-07T05:24:28;2.47;;;0.73;;
7841;SDS011;3966;51.052;13.820;2022-08-07T05:26:56;3.50;;;0.80;;
7841;SDS011;3966;51.052;13.820;2022-08-07T05:29:24;0.47;;;0.47;;
7841;SDS011;3966;51.052;13.820;2022-08-07T05:31:51;0.65;;;0.60;;
7841;SDS011;3966;51.052;13.820;2022-08-07T05:34:18;0.95;;;0.85;;
7841;SDS011;3966;51.052;13.820;2022-08-07T05:36:49;0.70;;;0.70;;
7841;SDS011;3966;51.052;13.820;2022-08-07T05:39:16;1.00;;;0.70;;
7841;SDS011;3966;51.052;13.820;2022-08-07T05:41:43;1.35;;;0.70;;
7841;SDS011;3966;51.052;13.820;2022-08-07T05:44:11;0.80;;;0.80;;
7841;SDS011;3966;51.052;13.820;2022-08-07T05:46:37;1.67;;;0.65;;
7841;SDS011;3966;51.052;13.820;2022-08-07T05:49:05;2.50;;;0.80;;
7841;SDS011;3966;51.052;13.820;2022-08-07T05:51:32;0.88;;;0.55;;
7841;SDS011;3966;51.052;13.820;2022-08-07T05:53:59;0.60;;;0.60;;
7841;SDS011;3966;51.052;13.820;2022-08-07T05:56:28;1.63;;;0.98;;
7841;SDS011;3966;51.052;13.820;2022-08-07T05:58:55;1.35;;;0.90;;
7841;SDS011;3966;51.052;13.820;2022-08-07T06:01:22;1.10;;;0.70;;
7841;SDS011;3966;51.052;13.820;2022-08-07T06:03:52;2.80;;;0.60;;
7841;SDS011;3966;51.052;13.820;2022-08-07T06:06:19;1.75;;;0.80;;
7841;SDS011;3966;51.052;13.820;2022-08-07T06:08:45;0.73;;;0.70;;
7841;SDS011;3966;51.052;13.820;2022-08-07T06:11:11;0.65;;;0.65;;
7841;SDS011;3966;51.052;13.820;2022-08-07T06:13:37;2.35;;;0.70;;
7841;SDS011;3966;51.052;13.820;2022-08-07T06:16:05;1.10;;;0.70;;
7841;SDS011;3966;51.052;13.820;2022-08-07T06:18:31;1.05;;;0.80;;
7841;SDS011;3966;51.052;13.820;2022-08-07T06:20:58;1.90;;;0.55;;
7841;SDS011;3966;51.052;13.820;2022-08-07T06:23:24;4.32;;;0.85;;
7841;SDS011;3966;51.052;13.820;2022-08-07T06:25:50;2.03;;;0.85;;
7841;SDS011;3966;51.052;13.820;2022-08-07T06:28:16;1.55;;;0.70;;
7841;SDS011;3966;51.052;13.820;2022-08-07T06:30:42;0.60;;;0.60;;
7841;SDS011;3966;51.052;13.820;2022-08-07T06:33:07;2.05;;;0.80;;
7841;SDS011;3966;51.052;13.820;2022-08-07T06:35:33;0.95;;;0.75;;
7841;SDS011;3966;51.052;13.820;2022-08-07T06:38:00;3.00;;;0.98;;
7841;SDS011;3966;51.052;13.820;2022-08-07T06:40:28;0.63;;;0.60;;
7841;SDS011;3966;51.052;13.820;2022-08-07T06:42:54;0.82;;;0.82;;
7841;SDS011;3966;51.052;13.820;2022-08-07T06:45:21;1.77;;;0.70;;
7841;SDS011;3966;51.052;13.820;2022-08-07T06:47:48;0.60;;;0.60;;
7841;SDS011;3966;51.052;13.820;2022-08-07T06:50:14;1.73;;;1.00;;
7841;SDS011;3966;51.052;13.820;2022-08-07T06:52:41;1.13;;;0.73;;
7841;SDS011;3966;51.052;13.820;2022-08-07T06:55:12;0.60;;;0.60;;
7841;SDS011;3966;51.052;13.820;2022-08-07T06:57:40;3.00;;;1.10;;
7841;SDS011;3966;51.052;13.820;2022-08-07T07:00:08;2.05;;;0.60;;
7841;SDS011;3966;51.052;13.820;2022-08-07T07:02:34;1.00;;;0.70;;
7841;SDS011;3966;51.052;13.820;2022-08-07T07:05:01;0.85;;;0.80;;
7841;SDS011;3966;51.052;13.820;2022-08-07T07:07:27;1.33;;;0.70;;
7841;SDS011;3966;51.052;13.820;2022-08-07T07:09:53;2.60;;;0.80;;
7841;SDS011;3966;51.052;13.820;2022-08-07T07:15:22;5.57;;;1.38;;
7841;SDS011;3966;51.052;13.820;2022-08-07T07:17:53;8.90;;;1.13;;
7841;SDS011;3966;51.052;13.820;2022-08-07T07:20:43;2.25;;;0.85;;
7841;SDS011;3966;51.052;13.820;2022-08-07T07:23:17;1.58;;;0.75;;
7841;SDS011;3966;51.052;13.820;2022-08-07T07:25:44;1.50;;;1.00;;
7841;SDS011;3966;51.052;13.820;2022-08-07T07:28:17;1.92;;;0.93;;
7841;SDS011;3966;51.052;13.820;2022-08-07T07:30:44;3.30;;;1.25;;
7841;SDS011;3966;51.052;13.820;2022-08-07T07:33:15;4.43;;;0.70;;
7841;SDS011;3966;51.052;13.820;2022-08-07T07:35:45;4.63;;;1.00;;
7841;SDS011;3966;51.052;13.820;2022-08-07T07:38:12;2.03;;;0.93;;
7841;SDS011;3966;51.052;13.820;2022-08-07T07:40:39;0.95;;;0.70;;
7841;SDS011;3966;51.052;13.820;2022-08-07T07:43:06;3.83;;;0.98;;
7841;SDS011;3966;51.052;13.820;2022-08-07T07:45:33;2.83;;;0.80;;
7841;SDS011;3966;51.052;13.820;2022-08-07T07:48:01;1.35;;;0.93;;
7841;SDS011;3966;51.052;13.820;2022-08-07T07:50:27;3.47;;;0.70;;
7841;SDS011;3966;51.052;13.820;2022-08-07T07:52:54;1.65;;;0.85;;
7841;SDS011;3966;51.052;13.820;2022-08-07T07:55:21;2.00;;;0.70;;
7841;SDS011;3966;51.052;13.820;2022-08-07T07:57:48;1.15;;;0.98;;
7841;SDS011;3966;51.052;13.820;2022-08-07T08:00:14;1.15;;;0.70;;
7841;SDS011;3966;51.052;13.820;2022-08-07T08:02:42;3.60;;;0.80;;
7841;SDS011;3966;51.052;13.820;2022-08-07T08:05:10;1.17;;;0.65;;
7841;SDS011;3966;51.052;13.820;2022-08-07T08:07:37;1.17;;;0.70;;
7841;SDS011;3966;51.052;13.820;2022-08-07T08:10:05;3.88;;;0.80;;
7841;SDS011;3966;51.052;13.820;2022-08-07T08:12:32;0.55;;;0.55;;
7841;SDS011;3966;51.052;13.820;2022-08-07T08:14:59;1.48;;;0.77;;
7841;SDS011;3966;51.052;13.820;2022-08-07T08:17:25;2.20;;;0.52;;
7841;SDS011;3966;51.052;13.820;2022-08-07T08:19:54;3.33;;;0.60;;
7841;SDS011;3966;51.052;13.820;2022-08-07T08:22:22;1.48;;;0.65;;
7841;SDS011;3966;51.052;13.820;2022-08-07T08:25:08;2.65;;;1.08;;
7841;SDS011;3966;51.052;13.820;2022-08-07T08:27:54;2.67;;;0.80;;
7841;SDS011;3966;51.052;13.820;2022-08-07T08:30:21;0.60;;;0.60;;
7841;SDS011;3966;51.052;13.820;2022-08-07T08:32:50;0.85;;;0.75;;
7841;SDS011;3966;51.052;13.820;2022-08-07T08:35:19;1.15;;;0.70;;
7841;SDS011;3966;51.052;13.820;2022-08-07T08:37:48;1.55;;;0.50;;
7841;SDS011;3966;51.052;13.820;2022-08-07T08:40:18;0.88;;;0.45;;
7841;SDS011;3966;51.052;13.820;2022-08-07T08:48:50;1.27;;;0.70;;
7841;SDS011;3966;51.052;13.820;2022-08-07T08:51:25;1.35;;;0.60;;
7841;SDS011;3966;51.052;13.820;2022-08-07T08:56:26;3.67;;;0.77;;
7841;SDS011;3966;51.052;13.820;2022-08-07T09:01:42;1.13;;;0.40;;
7841;SDS011;3966;51.052;13.820;2022-08-07T09:04:24;2.03;;;0.52;;
7841;SDS011;3966;51.052;13.820;2022-08-07T09:07:08;2.38;;;0.50;;
7841;SDS011;3966;51.052;13.820;2022-08-07T09:09:59;1.05;;;0.50;;
7841;SDS011;3966;51.052;13.820;2022-08-07T09:12:52;1.23;;;0.52;;
7841;SDS011;3966;51.052;13.820;2022-08-07T09:15:35;0.50;;;0.50;;
7841;SDS011;3966;51.052;13.820;2022-08-07T09:21:27;0.45;;;0.45;;
7841;SDS011;3966;51.052;13.820;2022-08-07T09:24:25;3.22;;;0.60;;
7841;SDS011;3966;51.052;13.820;2022-08-07T09:27:08;1.27;;;0.50;;
7841;SDS011;3966;51.052;13.820;2022-08-07T09:38:08;0.68;;;0.40;;
7841;SDS011;3966;51.052;13.820;2022-08-07T09:55:23;2.15;;;0.43;;
7841;SDS011;3966;51.052;13.820;2022-08-07T09:58:13;1.00;;;0.30;;
7841;SDS011;3966;51.052;13.820;2022-08-07T10:04:07;0.50;;;0.50;;
7841;SDS011;3966;51.052;13.820;2022-08-07T10:06:48;0.73;;;0.38;;
7841;SDS011;3966;51.052;13.820;2022-08-07T10:09:36;0.90;;;0.30;;
7841;SDS011;3966;51.052;13.820;2022-08-07T10:15:25;0.85;;;0.47;;
7841;SDS011;3966;51.052;13.820;2022-08-07T10:18:19;1.05;;;0.50;;
7841;SDS011;3966;51.052;13.820;2022-08-07T10:21:08;0.60;;;0.40;;
7841;SDS011;3966;51.052;13.820;2022-08-07T10:29:24;0.52;;;0.40;;
7841;SDS011;3966;51.052;13.820;2022-08-07T10:32:10;1.17;;;0.50;;
7841;SDS011;3966;51.052;13.820;2022-08-07T10:35:09;0.32;;;0.30;;
7841;SDS011;3966;51.052;13.820;2022-08-07T10:37:52;1.38;;;0.40;;
7841;SDS011;3966;51.052;13.820;2022-08-07T10:40:42;0.85;;;0.40;;
7841;SDS011;3966;51.052;13.820;2022-08-07T10:46:08;1.30;;;0.47;;
7841;SDS011;3966;51.052;13.820;2022-08-07T10:48:41;2.50;;;1.05;;
7841;SDS011;3966;51.052;13.820;2022-08-07T10:54:34;0.57;;;0.43;;
7841;SDS011;3966;51.052;13.820;2022-08-07T11:00:06;1.33;;;0.57;;
7841;SDS011;3966;51.052;13.820;2022-08-07T11:08:15;3.03;;;0.50;;
7841;SDS011;3966;51.052;13.820;2022-08-07T11:10:54;1.30;;;0.43;;
7841;SDS011;3966;51.052;13.820;2022-08-07T11:16:03;2.70;;;0.57;;
7841;SDS011;3966;51.052;13.820;2022-08-07T11:18:34;0.98;;;0.40;;
7841;SDS011;3966;51.052;13.820;2022-08-07T11:21:15;2.33;;;0.43;;
7841;SDS011;3966;51.052;13.820;2022-08-07T11:24:08;3.63;;;0.50;;
7841;SDS011;3966;51.052;13.820;2022-08-07T11:29:30;0.35;;;0.30;;
7841;SDS011;3966;51.052;13.820;2022-08-07T11:32:14;1.45;;;0.30;;
7841;SDS011;3966;51.052;13.820;2022-08-07T11:34:46;1.73;;;0.43;;
7841;SDS011;3966;51.052;13.820;2022-08-07T11:42:55;0.40;;;0.40;;
7841;SDS011;3966;51.052;13.820;2022-08-07T11:45:44;0.40;;;0.40;;
7841;SDS011;3966;51.052;13.820;2022-08-07T11:54:35;0.85;;;0.50;;
7841;SDS011;3966;51.052;13.820;2022-08-07T11:57:15;0.68;;;0.43;;
7841;SDS011;3966;51.052;13.820;2022-08-07T12:02:32;1.33;;;0.50;;
7841;SDS011;3966;51.052;13.820;2022-08-07T12:08:27;0.50;;;0.50;;
7841;SDS011;3966;51.052;13.820;2022-08-07T12:11:04;1.02;;;0.47;;
7841;SDS011;3966;51.052;13.820;2022-08-07T12:16:03;0.40;;;0.40;;
7841;SDS011;3966;51.052;13.820;2022-08-07T12:18:34;1.60;;;0.52;;
7841;SDS011;3966;51.052;13.820;2022-08-07T12:26:57;3.10;;;0.40;;
7841;SDS011;3966;51.052;13.820;2022-08-07T12:29:31;1.05;;;0.50;;
7841;SDS011;3966;51.052;13.820;2022-08-07T12:32:26;0.38;;;0.38;;
7841;SDS011;3966;51.052;13.820;2022-08-07T12:34:58;1.02;;;0.50;;
7841;SDS011;3966;51.052;13.820;2022-08-07T12:37:27;0.40;;;0.40;;
7841;SDS011;3966;51.052;13.820;2022-08-07T12:39:54;0.50;;;0.50;;
7841;SDS011;3966;51.052;13.820;2022-08-07T12:42:24;1.48;;;0.43;;
7841;SDS011;3966;51.052;13.820;2022-08-07T12:44:51;3.20;;;0.55;;
7841;SDS011;3966;51.052;13.820;2022-08-07T12:49:56;1.67;;;0.40;;
7841;SDS011;3966;51.052;13.820;2022-08-07T12:52:52;0.88;;;0.50;;
7841;SDS011;3966;51.052;13.820;2022-08-07T12:55:42;0.75;;;0.52;;
7841;SDS011;3966;51.052;13.820;2022-08-07T12:58:27;0.82;;;0.50;;
7841;SDS011;3966;51.052;13.820;2022-08-07T13:01:05;2.05;;;0.45;;
7841;SDS011;3966;51.052;13.820;2022-08-07T13:03:49;0.98;;;0.63;;
7841;SDS011;3966;51.052;13.820;2022-08-07T13:06:28;0.55;;;0.43;;
7841;SDS011;3966;51.052;13.820;2022-08-07T13:09:03;0.40;;;0.40;;
7841;SDS011;3966;51.052;13.820;2022-08-07T13:11:40;1.02;;;0.45;;
7841;SDS011;3966;51.052;13.820;2022-08-07T13:17:04;1.23;;;0.60;;
7841;SDS011;3966;51.052;13.820;2022-08-07T13:19:49;1.77;;;0.98;;
7841;SDS011;3966;51.052;13.820;2022-08-07T13:24:57;0.82;;;0.68;;
7841;SDS011;3966;51.052;13.820;2022-08-07T13:27:49;0.52;;;0.52;;
7841;SDS011;3966;51.052;13.820;2022-08-07T13:30:19;2.17;;;0.40;;
7841;SDS011;3966;51.052;13.820;2022-08-07T13:32:49;0.40;;;0.40;;
7841;SDS011;3966;51.052;13.820;2022-08-07T13:35:22;0.77;;;0.50;;
7841;SDS011;3966;51.052;13.820;2022-08-07T13:38:13;0.88;;;0.50;;
7841;SDS011;3966;51.052;13.820;2022-08-07T13:41:04;0.70;;;0.40;;
7841;SDS011;3966;51.052;13.820;2022-08-07T13:43:33;0.77;;;0.43;;
7841;SDS011;3966;51.052;13.820;2022-08-07T13:46:07;0.57;;;0.40;;
7841;SDS011;3966;51.052;13.820;2022-08-07T13:48:34;0.90;;;0.50;;
7841;SDS011;3966;51.052;13.820;2022-08-07T13:51:02;0.77;;;0.40;;
7841;SDS011;3966;51.052;13.820;2022-08-07T13:53:29;0.50;;;0.50;;
7841;SDS011;3966;51.052;13.820;2022-08-07T13:56:00;0.50;;;0.50;;
7841;SDS011;3966;51.052;13.820;2022-08-07T13:58:27;1.85;;;0.50;;
7841;SDS011;3966;51.052;13.820;2022-08-07T14:01:18;0.40;;;0.40;;
7841;SDS011;3966;51.052;13.820;2022-08-07T14:03:45;0.65;;;0.52;;
7841;SDS011;3966;51.052;13.820;2022-08-07T14:06:12;0.50;;;0.50;;
7841;SDS011;3966;51.052;13.820;2022-08-07T14:08:42;2.35;;;0.70;;
7841;SDS011;3966;51.052;13.820;2022-08-07T14:11:14;0.63;;;0.60;;
7841;SDS011;3966;51.052;13.820;2022-08-07T14:13:41;2.97;;;0.90;;
7841;SDS011;3966;51.052;13.820;2022-08-07T14:16:12;0.95;;;0.65;;
7841;SDS011;3966;51.052;13.820;2022-08-07T14:18:48;0.77;;;0.50;;
7841;SDS011;3966;51.052;13.820;2022-08-07T14:23:55;0.95;;;0.47;;
7841;SDS011;3966;51.052;13.820;2022-08-07T14:26:28;1.05;;;0.47;;
7841;SDS011;3966;51.052;13.820;2022-08-07T14:29:16;0.80;;;0.43;;
7841;SDS011;3966;51.052;13.820;2022-08-07T14:31:45;0.63;;;0.45;;
7841;SDS011;3966;51.052;13.820;2022-08-07T14:34:11;1.10;;;0.40;;
7841;SDS011;3966;51.052;13.820;2022-08-07T14:36:39;0.90;;;0.50;;
7841;SDS011;3966;51.052;13.820;2022-08-07T14:39:06;1.13;;;0.60;;
7841;SDS011;3966;51.052;13.820;2022-08-07T14:41:32;0.45;;;0.40;;
7841;SDS011;3966;51.052;13.820;2022-08-07T14:44:02;0.52;;;0.52;;
7841;SDS011;3966;51.052;13.820;2022-08-07T14:46:33;1.88;;;1.20;;
7841;SDS011;3966;51.052;13.820;2022-08-07T14:49:01;0.60;;;0.60;;
7841;SDS011;3966;51.052;13.820;2022-08-07T14:51:27;1.10;;;0.82;;
7841;SDS011;3966;51.052;13.820;2022-08-07T14:53:55;1.33;;;0.60;;
7841;SDS011;3966;51.052;13.820;2022-08-07T14:56:23;1.08;;;0.60;;
7841;SDS011;3966;51.052;13.820;2022-08-07T14:58:53;2.30;;;0.40;;
7841;SDS011;3966;51.052;13.820;2022-08-07T15:01:22;0.47;;;0.47;;
7841;SDS011;3966;51.052;13.820;2022-08-07T15:03:52;0.40;;;0.40;;
7841;SDS011;3966;51.052;13.820;2022-08-07T15:06:22;0.50;;;0.50;;
7841;SDS011;3966;51.052;13.820;2022-08-07T15:08:49;0.60;;;0.50;;
7841;SDS011;3966;51.052;13.820;2022-08-07T15:11:17;3.05;;;0.60;;
7841;SDS011;3966;51.052;13.820;2022-08-07T15:13:51;1.20;;;0.50;;
7841;SDS011;3966;51.052;13.820;2022-08-07T15:16:25;1.02;;;0.40;;
7841;SDS011;3966;51.052;13.820;2022-08-07T15:18:58;2.75;;;0.47;;
7841;SDS011;3966;51.052;13.820;2022-08-07T15:21:30;2.08;;;0.50;;
7841;SDS011;3966;51.052;13.820;2022-08-07T15:23:58;1.70;;;0.60;;
7841;SDS011;3966;51.052;13.820;2022-08-07T15:26:44;0.60;;;0.60;;
7841;SDS011;3966;51.052;13.820;2022-08-07T15:29:16;0.50;;;0.50;;
7841;SDS011;3966;51.052;13.820;2022-08-07T15:31:45;1.75;;;0.60;;
7841;SDS011;3966;51.052;13.820;2022-08-07T15:34:13;4.38;;;0.50;;
7841;SDS011;3966;51.052;13.820;2022-08-07T15:36:40;1.02;;;0.60;;
7841;SDS011;3966;51.052;13.820;2022-08-07T15:39:07;2.15;;;0.50;;
7841;SDS011;3966;51.052;13.820;2022-08-07T15:41:55;0.85;;;0.47;;
7841;SDS011;3966;51.052;13.820;2022-08-07T15:44:23;0.50;;;0.50;;
7841;SDS011;3966;51.052;13.820;2022-08-07T15:47:01;0.43;;;0.40;;
7841;SDS011;3966;51.052;13.820;2022-08-07T15:49:30;0.50;;;0.50;;
7841;SDS011;3966;51.052;13.820;2022-08-07T15:51:59;1.10;;;0.55;;
7841;SDS011;3966;51.052;13.820;2022-08-07T15:54:32;3.22;;;0.60;;
7841;SDS011;3966;51.052;13.820;2022-08-07T15:57:00;1.40;;;0.50;;
7841;SDS011;3966;51.052;13.820;2022-08-07T15:59:27;0.50;;;0.50;;
7841;SDS011;3966;51.052;13.820;2022-08-07T16:01:54;1.08;;;0.60;;
7841;SDS011;3966;51.052;13.820;2022-08-07T16:04:25;0.50;;;0.50;;
7841;SDS011;3966;51.052;13.820;2022-08-07T16:06:54;0.60;;;0.50;;
7841;SDS011;3966;51.052;13.820;2022-08-07T16:09:38;1.33;;;0.50;;
7841;SDS011;3966;51.052;13.820;2022-08-07T16:12:34;0.40;;;0.40;;
7841;SDS011;3966;51.052;13.820;2022-08-07T16:18:08;1.15;;;0.60;;
7841;SDS011;3966;51.052;13.820;2022-08-07T16:21:05;0.52;;;0.50;;
7841;SDS011;3966;51.052;13.820;2022-08-07T16:23:52;0.70;;;0.50;;
7841;SDS011;3966;51.052;13.820;2022-08-07T16:26:43;1.20;;;0.50;;
7841;SDS011;3966;51.052;13.820;2022-08-07T16:31:54;0.47;;;0.47;;
7841;SDS011;3966;51.052;13.820;2022-08-07T16:37:11;0.60;;;0.40;;
7841;SDS011;3966;51.052;13.820;2022-08-07T16:40:20;0.88;;;0.50;;
7841;SDS011;3966;51.052;13.820;2022-08-07T16:43:12;1.48;;;0.70;;
7841;SDS011;3966;51.052;13.820;2022-08-07T16:46:16;1.90;;;0.57;;
7841;SDS011;3966;51.052;13.820;2022-08-07T17:00:24;1.63;;;0.55;;
7841;SDS011;3966;51.052;13.820;2022-08-07T17:03:07;0.98;;;0.77;;
7841;SDS011;3966;51.052;13.820;2022-08-07T17:11:09;0.60;;;0.60;;
7841;SDS011;3966;51.052;13.820;2022-08-07T17:13:39;0.60;;;0.50;;
7841;SDS011;3966;51.052;13.820;2022-08-07T17:16:59;3.42;;;0.88;;
7841;SDS011;3966;51.052;13.820;2022-08-07T17:19:00;2.58;;;0.60;;
7841;SDS011;3966;51.052;13.820;2022-08-07T17:21:51;0.88;;;0.70;;
7841;SDS011;3966;51.052;13.820;2022-08-07T17:27:42;0.90;;;0.60;;
7841;SDS011;3966;51.052;13.820;2022-08-07T17:30:23;1.48;;;1.38;;
7841;SDS011;3966;51.052;13.820;2022-08-07T17:33:03;0.80;;;0.80;;
7841;SDS011;3966;51.052;13.820;2022-08-07T17:35:54;1.35;;;0.90;;
7841;SDS011;3966;51.052;13.820;2022-08-07T17:44:24;2.63;;;0.73;;
7841;SDS011;3966;51.052;13.820;2022-08-07T17:47:05;3.78;;;1.10;;
7841;SDS011;3966;51.052;13.820;2022-08-07T17:49:53;2.00;;;1.00;;
7841;SDS011;3966;51.052;13.820;2022-08-07T17:55:08;1.83;;;0.90;;
7841;SDS011;3966;51.052;13.820;2022-08-07T17:57:40;2.47;;;1.02;;
7841;SDS011;3966;51.052;13.820;2022-08-07T18:00:20;2.10;;;2.00;;
7841;SDS011;3966;51.052;13.820;2022-08-07T18:02:57;1.67;;;1.13;;
7841;SDS011;3966;51.052;13.820;2022-08-07T18:05:43;3.05;;;2.40;;